Storia di METAR Noord Nederlandse Zweefvliegclub (NL-0036)

26 settembre 2022

Tempo Codice Tempo metereologico Temp. Vista Base nuvolosa Vento METAR/SPECI
13:25
M
12 °C 10 km+ 1.000 ft 200° 200° 14 kt METAR EHLE 261125Z AUTO 20014KT 170V240 9999 -RADZ FEW006 SCT008 BKN010 12/11 Q0997 TEMPO 4000
12:55
M
12 °C 9 km 1.000 ft 200° 200° 14 kt METAR EHLE 261055Z AUTO 20014KT 150V250 9000 -RA FEW007 SCT009 BKN010 12/11 Q0997 RERA REDZ TEMPO 4000 BECMG BKN008
12:25
M
12 °C 10 km+ 1.000 ft 190° 190° 14 kt METAR EHLE 261025Z AUTO 19014KT 160V220 9999 FEW008 SCT009 BKN010 12/11 Q0997 REDZ TEMPO 4000 RADZ BKN008
11:55
M
12 °C 10 km+ 1.000 ft 190° 190° 16 kt METAR EHLE 260955Z AUTO 19016KT 160V220 9999 FEW009 BKN010 OVC014 12/11 Q0997 BECMG 6000 -RADZ
11:25
M
12 °C 10 km+ 2.400 ft 190° 190° 16 kt METAR EHLE 260925Z AUTO 19016KT 160V220 9999 SCT013 BKN024 OVC028 12/10 Q0998 REDZ BECMG 6000 BKN014
10:55
V
12 °C 10 km+ 3.700 ft 190° 190° 15 kt METAR EHLE 260855Z AUTO 19015KT 160V230 9999 FEW031 BKN037 OVC041 12/09 Q0998 BECMG 6000 -RA
10:25
V
12 °C 10 km+ 4.000 ft 200° 200° 14 kt METAR EHLE 260825Z AUTO 20014KT 160V230 9999 BKN040 12/09 Q0998 BECMG 6000 -RA
09:55
V
11 °C 10 km+ - 200° 200° 15 kt METAR EHLE 260755Z AUTO 20015KT 160V230 9999 SCT033 SCT037 11/09 Q0999 NOSIG
09:25
V
11 °C 10 km+ - 200° 200° 13 kt METAR EHLE 260725Z AUTO 20013KT 170V230 9999 NSC 11/09 Q0999 NOSIG
08:55
V
11 °C 10 km+ - 200° 200° 14 kt METAR EHLE 260655Z AUTO 20014KT 170V230 9999 NSC 11/08 Q1000 NOSIG
08:25
V
11 °C 10 km+ 4.000 ft 190° 190° 14 kt METAR EHLE 260625Z AUTO 19014KT 160V220 9999 -DZ FEW015CB BKN040 OVC044 11/08 Q1000 REDZ NOSIG
07:55
V
11 °C 10 km+ 3.800 ft 200° 200° 13 kt METAR EHLE 260555Z AUTO 20013KT 160V220 9999 -RA FEW015CB BKN038 OVC042 11/08 Q1001 RERA REDZ NOSIG
07:25
V
11 °C 10 km+ - 200° 200° 14 kt METAR EHLE 260525Z AUTO 20014KT 9999 -RA FEW015CB 11/09 Q1001 RERA REDZ NOSIG
06:55
V
11 °C 10 km+ - 210° 210° 11 kt METAR EHLE 260455Z AUTO 21011KT 180V250 9999 -RA FEW015CB 11/09 Q1002 NOSIG
06:25
V
11 °C 10 km+ - 200° 200° 12 kt METAR EHLE 260425Z AUTO 20012KT 170V230 9999 FEW015CB 11/09 Q1002 REDZ
05:55
V
11 °C 10 km+ - 200° 200° 12 kt METAR EHLE 260355Z AUTO 20012KT 170V230 9999 -RADZ NSC 11/10 Q1003
05:25
V
11 °C 10 km+ - 200° 200° 12 kt METAR EHLE 260325Z AUTO 20012KT 170V230 9999 FEW041 SCT047 11/10 Q1004
04:55
V
11 °C 10 km+ - 200° 200° 11 kt METAR EHLE 260255Z AUTO 20011KT 9999 -RA NSC 11/10 Q1004 RERA REDZ
04:25
V
12 °C 10 km+ - 210° 210° 10 kt METAR EHLE 260225Z AUTO 21010KT 180V250 9999 -SHRA FEW015CB 12/10 Q1005 REDZ
03:55
V
12 °C 10 km+ - 210° 210° 10 kt METAR EHLE 260155Z AUTO 21010KT 180V240 9999 NSC 12/10 Q1005
03:25
V
12 °C 10 km+ - 200° 200° 10 kt METAR EHLE 260125Z AUTO 20010KT 9999 NSC 12/10 Q1006
02:55
V
12 °C 10 km+ - 200° 200° 9 kt METAR EHLE 260055Z AUTO 20009KT 170V230 9999 NSC 12/10 Q1007
02:25
V
12 °C 10 km+ - 210° 210° 8 kt METAR EHLE 260025Z AUTO 21008KT 9999 SCT038 12/09 Q1007
01:55
V
11 °C 10 km+ - 200° 200° 7 kt METAR EHLE 252355Z AUTO 20007KT 9999 FEW040 11/09 Q1008
01:25
V
11 °C 10 km+ - 200° 200° 7 kt METAR EHLE 252325Z AUTO 20007KT 9999 NSC 11/09 Q1008
00:55
V
11 °C 10 km+ - 210° 210° 7 kt METAR EHLE 252255Z AUTO 21007KT 9999 NSC 11/09 Q1009
00:25
V
12 °C 10 km+ - 210° 210° 7 kt METAR EHLE 252225Z AUTO 21007KT 9999 SCT048 12/09 Q1010

25 settembre 2022

Tempo Codice Tempo metereologico Temp. Vista Base nuvolosa Vento METAR/SPECI
23:55
V
11 °C 10 km+ - 200° 200° 5 kt METAR EHLE 252155Z AUTO 20005KT 9999 FEW042 11/10 Q1010
23:25
V
11 °C 10 km+ - 250° 250° 3 kt METAR EHLE 252125Z AUTO 25003KT 9999 NSC 11/09 Q1010
22:55
V
12 °C 10 km+ - 220° 220° 5 kt METAR EHLE 252055Z AUTO 22005KT 9999 NSC 12/10 Q1011
22:25
V
11 °C 10 km+ - 220° 220° 5 kt METAR EHLE 252025Z AUTO 22005KT 9999 NSC 11/09 Q1011
21:55
V
11 °C 10 km+ - 210° 210° 5 kt METAR EHLE 251955Z AUTO 21005KT 9999 NSC 11/09 Q1011
21:25
V
11 °C 10 km+ - 230° 230° 5 kt METAR EHLE 251925Z AUTO 23005KT 9999 NSC 11/09 Q1011 NOSIG
20:55
V
11 °C 10 km+ - 230° 230° 5 kt METAR EHLE 251855Z AUTO 23005KT 9999 NSC 11/09 Q1012 NOSIG
20:25
V
12 °C 10 km+ - 200° 200° 3 kt METAR EHLE 251825Z AUTO 20003KT 180V240 9999 NSC 12/10 Q1012 NOSIG
19:55
V
11 °C 10 km+ - 260° 260° 4 kt METAR EHLE 251755Z AUTO 26004KT 9999 FEW029 11/09 Q1012 NOSIG
19:25
V
13 °C 10 km+ - 250° 250° 5 kt METAR EHLE 251725Z AUTO 25005KT 9999 NSC 13/10 Q1012 NOSIG
18:55
V
13 °C 10 km+ - 270° 270° 5 kt METAR EHLE 251655Z AUTO 27005KT 9999 NSC 13/10 Q1013 NOSIG
18:25
V
14 °C 10 km+ - 270° 270° 6 kt METAR EHLE 251625Z AUTO 27006KT 9999 NSC 14/10 Q1013 NOSIG
17:55
V
15 °C 10 km+ 3.100 ft 260° 260° 6 kt METAR EHLE 251555Z AUTO 26006KT 220V280 9999 SCT024 SCT028 BKN031 15/09 Q1013 NOSIG
17:25
V
15 °C 10 km+ - 280° 280° 5 kt METAR EHLE 251525Z AUTO 28005KT 250V320 9999 NSC 15/10 Q1013 TEMPO -SHRA FEW022TCU
16:55
V
15 °C 10 km+ - 280° 280° 7 kt METAR EHLE 251455Z AUTO 28007KT 9999 NCD 15/09 Q1013 TEMPO -SHRA FEW022TCU
16:25
V
16 °C 10 km+ - 310° 310° 6 kt METAR EHLE 251425Z AUTO 31006KT 270V020 9999 NCD 16/10 Q1014 NOSIG
15:55
V
15 °C 10 km+ - 280° 280° 5 kt METAR EHLE 251355Z AUTO 28005KT 240V320 9999 NSC 15/11 Q1014 NOSIG
15:25
V
14 °C 10 km+ - 280° 280° 5 kt METAR EHLE 251325Z AUTO 28005KT 250V320 9999 NSC 14/11 Q1014 NOSIG
14:55
V
14 °C 10 km+ - 290° 290° 4 kt METAR EHLE 251255Z AUTO 29004KT 9999 -RA NSC 14/11 Q1014 NOSIG
14:25
V
14 °C 10 km+ - 290° 290° 11 kt METAR EHLE 251225Z AUTO 29011KT 260V320 9999 -RA FEW049 14/11 Q1015 NOSIG
13:55
V
16 °C 10 km+ - 310° 310° 7 kt METAR EHLE 251155Z AUTO 31007KT 9999 FEW037 16/09 Q1015 NOSIG
13:25
V
16 °C 10 km+ - 300° 300° 6 kt METAR EHLE 251125Z AUTO 30006KT 250V360 9999 NSC 16/09 Q1015 NOSIG
12:55
M
16 °C 10 km+ 2.300 ft 310° 310° 6 kt METAR EHLE 251055Z AUTO 31006KT 260V010 9999 BKN023 16/09 Q1015 NOSIG
12:25
V
16 °C 10 km+ - 300° 300° 6 kt METAR EHLE 251025Z AUTO 30006KT 260V330 9999 SCT023 SCT045 16/10 Q1015 NOSIG
11:55
V
15 °C 10 km+ - 320° 320° 5 kt METAR EHLE 250955Z AUTO 32005KT 260V020 9999 NCD 15/10 Q1015 NOSIG
11:25
M
14 °C 10 km+ 2.400 ft 310° 310° 8 kt METAR EHLE 250925Z AUTO 31008KT 260V040 9999 SCT019 BKN024 BKN030 14/10 Q1015 NOSIG
10:55
V
15 °C 10 km+ - 310° 310° 5 kt METAR EHLE 250855Z AUTO 31005KT 270V340 9999 NSC 15/11 Q1015 NOSIG
10:25
V
14 °C 10 km+ - 330° 330° 4 kt METAR EHLE 250825Z AUTO 33004KT 280V050 9999 FEW015 14/11 Q1015 NOSIG
09:55
M
13 °C 10 km+ 1.900 ft Var Var 1 kt METAR EHLE 250755Z AUTO VRB01KT 9999 OVC019 13/11 Q1015 NOSIG
09:25
V
11 °C 10 km+ - 280° 280° 2 kt METAR EHLE 250725Z AUTO 28002KT 9999 NCD 11/11 Q1015 NOSIG
08:55
V
9 °C 10 km+ - 280° 280° 2 kt METAR EHLE 250655Z AUTO 28002KT 9999 NCD 09/09 Q1015 NOSIG
08:25
V
7 °C 10 km+ - Var Var 1 kt METAR EHLE 250625Z AUTO VRB01KT 9999 NCD 07/07 Q1015 NOSIG
07:55
V
6 °C 10 km+ - Var Var 1 kt METAR EHLE 250555Z AUTO VRB01KT 9999 NCD 06/06 Q1015 NOSIG
07:25
V
6 °C 10 km+ - 320° 320° 1 kt METAR EHLE 250525Z AUTO 32001KT 9999 NCD 06/06 Q1015 NOSIG
06:55
V
7 °C 10 km+ - Var Var 2 kt METAR EHLE 250455Z AUTO VRB02KT 9999 FEW032 07/07 Q1015 NOSIG
06:25
V
6 °C 10 km+ - 320° 320° 4 kt METAR EHLE 250425Z AUTO 32004KT 9999 NCD 06/06 Q1015
05:55
V
7 °C 10 km+ - 300° 300° 3 kt METAR EHLE 250355Z AUTO 30003KT 9999 NSC 07/06 Q1015
05:25
V
7 °C 10 km+ - 300° 300° 1 kt METAR EHLE 250325Z AUTO 30001KT 9999 NSC 07/07 Q1015
04:55
V
7 °C 9 km - 320° 320° 2 kt METAR EHLE 250255Z AUTO 32002KT 9000 NCD 07/06 Q1015
04:25
V
7 °C 10 km+ - 290° 290° 3 kt METAR EHLE 250225Z AUTO 29003KT 9999 NSC 07/07 Q1015
03:55
V
7 °C 10 km+ - 320° 320° 3 kt METAR EHLE 250155Z AUTO 32003KT 9999 NCD 07/07 Q1015
03:25
V
8 °C 10 km+ - 340° 340° 3 kt METAR EHLE 250125Z AUTO 34003KT 320V050 9999 NCD 08/08 Q1016
02:55
V
8 °C 10 km+ - 320° 320° 4 kt METAR EHLE 250055Z AUTO 32004KT 9999 NCD 08/08 Q1016
02:25
V
8 °C 10 km+ - 320° 320° 4 kt METAR EHLE 250025Z AUTO 32004KT 9999 NCD 08/08 Q1016
01:55
V
8 °C 10 km+ - 310° 310° 3 kt METAR EHLE 242355Z AUTO 31003KT 9999 NCD 08/08 Q1015
01:25
V
8 °C 10 km+ - 340° 340° 3 kt METAR EHLE 242325Z AUTO 34003KT 9999 NCD 08/08 Q1015
00:55
V
9 °C 10 km+ - 310° 310° 3 kt METAR EHLE 242255Z AUTO 31003KT 9999 NCD 09/08 Q1015
00:25
V
9 °C 10 km+ - 310° 310° 3 kt METAR EHLE 242225Z AUTO 31003KT 9999 NCD 09/08 Q1016

24 settembre 2022

Tempo Codice Tempo metereologico Temp. Vista Base nuvolosa Vento METAR/SPECI
23:55
V
9 °C 10 km+ - 350° 350° 4 kt METAR EHLE 242155Z AUTO 35004KT 330V030 9999 FEW028 09/08 Q1015
23:25
V
10 °C 10 km+ - 350° 350° 5 kt METAR EHLE 242125Z AUTO 35005KT 9999 NCD 10/08 Q1015
22:55
V
11 °C 10 km+ - 360° 360° 6 kt METAR EHLE 242055Z AUTO 36006KT 9999 NCD 11/09 Q1015
22:25
V
11 °C 10 km+ - 350° 350° 6 kt METAR EHLE 242025Z AUTO 35006KT 9999 NSC 11/09 Q1015
21:55
V
11 °C 10 km+ - 360° 360° 5 kt METAR EHLE 241955Z AUTO 36005KT 9999 NCD 11/09 Q1015 NOSIG
21:25
V
11 °C 10 km+ - 360° 360° 6 kt METAR EHLE 241925Z AUTO 36006KT 9999 NSC 11/09 Q1015 NOSIG
20:55
V
12 °C 10 km+ - 010° 010° 5 kt METAR EHLE 241855Z AUTO 01005KT 9999 NSC 12/09 Q1015 NOSIG
20:25
V
12 °C 10 km+ - 010° 010° 8 kt METAR EHLE 241825Z AUTO 01008KT 9999 NSC 12/09 Q1015 NOSIG
19:55
V
13 °C 10 km+ - 010° 010° 8 kt METAR EHLE 241755Z AUTO 01008KT 9999 NSC 13/09 Q1014 NOSIG
19:25
V
13 °C 10 km+ - 010° 010° 7 kt METAR EHLE 241725Z AUTO 01007KT 9999 NSC 13/09 Q1014 NOSIG
18:55
V
14 °C 10 km+ - 030° 030° 11 kt METAR EHLE 241655Z AUTO 03011KT 9999 NSC 14/09 Q1014 NOSIG
18:25
V
15 °C 10 km+ - 020° 020° 13 kt METAR EHLE 241625Z AUTO 02013KT 360V060 9999 FEW031 15/10 Q1014 NOSIG
17:55
V
16 °C 10 km+ - 020° 020° 10 kt METAR EHLE 241555Z AUTO 02010KT 9999 NSC 16/11 Q1013 NOSIG
17:25
V
16 °C 10 km+ - 030° 030° 10 kt METAR EHLE 241525Z AUTO 03010KT 360V060 9999 FEW037 16/11 Q1013 NOSIG
16:55
V
16 °C 10 km+ - 020° 020° 9 kt METAR EHLE 241455Z AUTO 02009KT 9999 SCT027 SCT031 16/11 Q1013 NOSIG
16:25
V
16 °C 10 km+ - 020° 020° 11 kt METAR EHLE 241425Z AUTO 02011KT 9999 FEW026 16/11 Q1013 NOSIG
15:55
V
16 °C 10 km+ 4.300 ft 020° 020° 9 kt METAR EHLE 241355Z AUTO 02009KT 340V050 9999 SCT023 SCT034 BKN043 16/11 Q1013 NOSIG
15:25
V
16 °C 10 km+ - 020° 020° 11 kt METAR EHLE 241325Z AUTO 02011KT 9999 FEW025 SCT031 16/12 Q1013 NOSIG
14:55
V
16 °C 10 km+ - 020° 020° 10 kt METAR EHLE 241255Z AUTO 02010KT 350V050 9999 FEW020 SCT046 16/12 Q1013 NOSIG
14:25
V
16 °C 10 km+ 4.900 ft 020° 020° 12 kt METAR EHLE 241225Z AUTO 02012KT 340V050 9999 OVC049 16/12 Q1013 NOSIG
13:55
V
16 °C 10 km+ 3.600 ft 020° 020° 10 kt METAR EHLE 241155Z AUTO 02010KT 350V050 9999 SCT020 OVC036 16/12 Q1013 NOSIG
Dati più vecchi

Noi e le terze parti seguiamo il tuo comportamento in internet sul nostro sito web con i cookie. Se continui, riteniamo che tu sia d'accordo con la nostra politica sui cookie. Per saperne di più